createdAt,value
2022-07-28T00:04:49.234Z,2.30
2022-07-28T00:09:50.984Z,2.30
2022-07-28T00:14:52.752Z,2.40
2022-07-28T00:19:54.424Z,2.10
2022-07-28T00:24:56.247Z,2.00
2022-07-28T00:29:57.919Z,2.30
2022-07-28T00:34:59.901Z,1.80
2022-07-28T00:40:02.318Z,1.97
2022-07-28T00:45:04.510Z,2.10
2022-07-28T00:50:06.590Z,2.10
2022-07-28T00:55:08.543Z,2.20
2022-07-28T01:00:10.693Z,2.23
2022-07-28T01:05:14.778Z,2.40
2022-07-28T01:10:28.502Z,2.93
2022-07-28T01:15:35.535Z,2.90
2022-07-28T01:20:38.335Z,3.40
2022-07-28T01:26:17.233Z,3.40
2022-07-28T01:31:24.517Z,3.67
2022-07-28T01:36:31.762Z,3.70
2022-07-28T01:41:33.864Z,3.23
2022-07-28T01:46:36.094Z,3.97
2022-07-28T01:51:37.832Z,4.87
2022-07-28T01:56:39.530Z,5.73
2022-07-28T02:01:44.306Z,5.73
2022-07-28T02:06:46.036Z,5.10
2022-07-28T02:11:47.732Z,5.40
2022-07-28T02:17:00.284Z,5.40
2022-07-28T02:22:01.966Z,5.20
2022-07-28T02:27:23.942Z,4.47
2022-07-28T02:33:59.885Z,4.30
2022-07-28T02:39:07.985Z,4.50
2022-07-28T02:44:14.896Z,3.43
2022-07-28T02:49:25.403Z,3.07
2022-07-28T02:54:27.270Z,2.87
2022-07-28T02:59:29.292Z,3.30
2022-07-28T03:04:49.639Z,3.30
2022-07-28T03:09:51.403Z,3.17
2022-07-28T03:14:53.077Z,3.10
2022-07-28T03:19:54.956Z,3.20
2022-07-28T03:24:56.731Z,2.83
2022-07-28T03:30:04.542Z,2.87
2022-07-28T03:35:06.543Z,2.80
2022-07-28T03:40:10.020Z,2.90
2022-07-28T03:45:11.786Z,4.20
2022-07-28T03:50:13.483Z,4.40
2022-07-28T03:55:15.241Z,2.43
2022-07-28T04:00:17.112Z,3.20
2022-07-28T04:05:18.914Z,2.40
2022-07-28T04:10:20.621Z,2.60
2022-07-28T04:15:22.402Z,3.73
2022-07-28T04:20:24.741Z,5.23
2022-07-28T04:25:26.906Z,3.23
2022-07-28T04:30:28.754Z,3.00
2022-07-28T04:35:30.519Z,3.00
2022-07-28T04:40:33.624Z,2.87
2022-07-28T04:45:35.323Z,3.60
2022-07-28T04:50:37.109Z,3.33
2022-07-28T04:55:39.172Z,2.90
2022-07-28T05:00:41.047Z,3.13
2022-07-28T05:05:42.730Z,3.13
2022-07-28T05:10:48.946Z,6.53
2022-07-28T05:15:51.315Z,4.37
2022-07-28T05:20:53.050Z,3.63
2022-07-28T05:25:54.749Z,3.67
2022-07-28T05:30:56.493Z,4.67
2022-07-28T05:35:58.183Z,4.40
2022-07-28T05:41:00.168Z,3.80
2022-07-28T05:46:02.008Z,4.03
2022-07-28T05:51:04.271Z,4.40
2022-07-28T05:56:06.538Z,3.80
2022-07-28T06:01:08.329Z,3.67
2022-07-28T06:06:14.559Z,2.60
2022-07-28T06:11:22.317Z,2.60
2022-07-28T06:16:24.674Z,2.20
2022-07-28T06:21:26.357Z,3.13
2022-07-28T06:26:28.025Z,3.27
2022-07-28T06:31:29.840Z,2.97
2022-07-28T06:36:31.637Z,2.80
2022-07-28T06:41:33.305Z,2.70
2022-07-28T06:46:36.326Z,2.20
2022-07-28T06:51:38.287Z,2.40
2022-07-28T06:56:40.213Z,2.53
2022-07-28T07:01:43.706Z,2.30
2022-07-28T07:06:45.412Z,3.10
2022-07-28T07:11:47.139Z,3.00
2022-07-28T07:16:48.985Z,2.70
2022-07-28T07:21:50.765Z,2.23
2022-07-28T07:26:52.443Z,2.20
2022-07-28T07:31:54.164Z,2.43
2022-07-28T07:36:55.856Z,2.47
2022-07-28T07:41:57.602Z,2.93
2022-07-28T07:47:00.225Z,3.03
2022-07-28T07:52:02.002Z,2.57
2022-07-28T07:57:03.642Z,2.90
2022-07-28T08:02:05.754Z,2.40
2022-07-28T08:07:07.689Z,2.50
2022-07-28T08:12:09.651Z,1.90
2022-07-28T08:17:11.386Z,2.60
2022-07-28T08:22:13.102Z,1.83
2022-07-28T08:27:14.865Z,2.30
2022-07-28T08:32:16.582Z,1.97
2022-07-28T08:37:19.377Z,2.20
2022-07-28T08:42:27.585Z,2.10
2022-07-28T08:47:40.593Z,1.80
2022-07-28T08:52:48.239Z,1.90
2022-07-28T08:57:49.913Z,3.13
2022-07-28T09:02:52.121Z,1.80
2022-07-28T09:07:55.477Z,2.53
2022-07-28T09:12:57.611Z,3.70
2022-07-28T09:17:59.518Z,1.67
2022-07-28T09:23:02.474Z,2.30
2022-07-28T09:28:10.708Z,2.10
2022-07-28T09:33:42.059Z,2.10
2022-07-28T09:38:42.415Z,1.90
2022-07-28T09:43:44.932Z,2.00
2022-07-28T09:48:49.794Z,1.70
2022-07-28T09:53:52.647Z,1.80
2022-07-28T09:58:57.361Z,1.50
2022-07-28T10:04:13.647Z,3.73
2022-07-28T10:09:15.402Z,2.77
2022-07-28T10:14:21.393Z,3.10
2022-07-28T10:19:24.534Z,1.90
2022-07-28T10:24:26.901Z,1.63
2022-07-28T10:29:31.452Z,1.90
2022-07-28T10:34:38.298Z,1.97
2022-07-28T10:39:41.805Z,1.93
2022-07-28T10:44:43.504Z,2.70
2022-07-28T10:49:45.182Z,1.93
2022-07-28T10:55:02.256Z,5.07
2022-07-28T11:00:24.533Z,3.57
2022-07-28T11:05:40.783Z,2.57
2022-07-28T11:10:47.097Z,1.70
2022-07-28T11:15:49.581Z,2.80
2022-07-28T11:20:58.538Z,2.13
2022-07-28T11:26:27.694Z,1.80
2022-07-28T11:31:44.390Z,1.50
2022-07-28T11:36:58.026Z,4.00
2022-07-28T11:41:59.834Z,1.70
2022-07-28T11:47:24.954Z,3.13
2022-07-28T11:52:26.664Z,2.77
2022-07-28T11:57:28.672Z,1.80
2022-07-28T12:02:31.528Z,2.30
2022-07-28T12:07:44.557Z,1.70
2022-07-28T12:12:52.823Z,1.80
2022-07-28T12:17:54.979Z,4.40
2022-07-28T12:22:57.453Z,8.17
2022-07-28T12:28:22.578Z,2.37
2022-07-28T12:33:29.631Z,1.70
2022-07-28T12:38:31.905Z,1.45
2022-07-28T12:43:34.262Z,1.40
2022-07-28T12:48:40.677Z,1.50
2022-07-28T12:53:51.501Z,1.50
2022-07-28T12:59:06.934Z,1.30
2022-07-28T13:04:08.643Z,1.80
2022-07-28T13:09:14.965Z,1.40
2022-07-28T13:14:17.447Z,1.60
2022-07-28T13:19:22.400Z,1.60
2022-07-28T13:24:25.878Z,1.40
2022-07-28T13:29:27.566Z,1.40
2022-07-28T13:34:29.257Z,1.67
2022-07-28T13:39:30.964Z,1.70
2022-07-28T13:44:33.478Z,1.52
2022-07-28T13:49:37.418Z,1.45
2022-07-28T13:54:39.270Z,1.40
2022-07-28T13:59:42.023Z,1.48
2022-07-28T14:04:50.420Z,1.40
2022-07-28T14:09:52.541Z,1.38
2022-07-28T14:14:54.233Z,1.33
2022-07-28T14:19:55.967Z,1.30
2022-07-28T14:24:57.635Z,1.40
2022-07-28T14:29:59.306Z,1.45
2022-07-28T14:35:05.690Z,1.38
2022-07-28T14:40:07.941Z,2.30
2022-07-28T14:45:09.967Z,1.90
2022-07-28T14:50:11.710Z,1.45
2022-07-28T14:55:13.471Z,1.33
2022-07-28T15:00:16.166Z,1.20
2022-07-28T15:05:17.898Z,1.77
2022-07-28T15:10:19.838Z,1.65
2022-07-28T15:15:26.421Z,1.75
2022-07-28T15:20:28.148Z,1.48
2022-07-28T15:25:29.827Z,1.60
2022-07-28T15:30:31.629Z,1.33
2022-07-28T15:35:59.258Z,1.60
2022-07-28T15:40:59.992Z,3.35
2022-07-28T15:46:08.490Z,1.60
2022-07-28T15:51:10.603Z,1.80
2022-07-28T15:56:12.353Z,1.90
2022-07-28T16:01:14.053Z,1.60
2022-07-28T16:06:16.340Z,1.55
2022-07-28T16:11:18.143Z,1.77
2022-07-28T16:16:19.999Z,1.73
2022-07-28T16:21:21.719Z,4.93
2022-07-28T16:26:26.295Z,1.93
2022-07-28T16:31:29.124Z,1.90
2022-07-28T16:36:31.068Z,1.77
2022-07-28T16:41:46.633Z,1.60
2022-07-28T16:46:49.944Z,1.70
2022-07-28T16:51:51.765Z,1.30
2022-07-28T16:56:55.382Z,1.53
2022-07-28T17:01:57.429Z,1.50
2022-07-28T17:06:59.658Z,1.80
2022-07-28T17:12:01.371Z,1.50
2022-07-28T17:17:03.112Z,1.53
2022-07-28T17:22:07.003Z,1.63
2022-07-28T17:32:30.486Z,1.63
2022-07-28T17:37:32.205Z,1.40
2022-07-28T17:42:34.508Z,1.70
2022-07-28T17:47:36.662Z,1.60
2022-07-28T17:52:40.147Z,1.67
2022-07-28T17:57:41.827Z,1.30
2022-07-28T18:02:43.682Z,1.77
2022-07-28T18:07:49.613Z,1.67
2022-07-28T18:12:53.038Z,2.20
2022-07-28T18:17:56.062Z,1.90
2022-07-28T18:22:57.914Z,1.77
2022-07-28T18:27:59.596Z,1.53
2022-07-28T18:33:04.621Z,1.50
2022-07-28T18:38:06.285Z,1.40
2022-07-28T18:43:12.695Z,1.63
2022-07-28T18:48:14.810Z,1.50
2022-07-28T18:53:16.518Z,1.40
2022-07-28T18:58:18.262Z,1.63
2022-07-28T19:03:20.063Z,1.63
2022-07-28T19:08:21.824Z,1.53
2022-07-28T19:13:23.542Z,1.47
2022-07-28T19:18:25.237Z,1.60
2022-07-28T19:23:26.912Z,1.70
2022-07-28T19:28:29.163Z,1.23
2022-07-28T19:33:31.395Z,1.47
2022-07-28T19:38:35.768Z,1.70
2022-07-28T19:43:37.431Z,1.77
2022-07-28T19:48:39.571Z,1.60
2022-07-28T19:53:41.576Z,14.17
2022-07-28T19:58:44.090Z,16.63
2022-07-28T20:04:01.283Z,2.57
2022-07-28T20:09:06.530Z,2.90
2022-07-28T20:14:08.264Z,2.30
2022-07-28T20:19:09.935Z,1.80
2022-07-28T20:24:13.361Z,1.63
2022-07-28T20:29:15.276Z,1.90
2022-07-28T20:34:17.690Z,1.70
2022-07-28T20:39:43.346Z,1.90
2022-07-28T20:44:41.467Z,1.90
2022-07-28T20:49:43.418Z,1.43
2022-07-28T20:54:45.141Z,1.60
2022-07-28T20:59:48.879Z,1.80
2022-07-28T21:04:51.313Z,2.00
2022-07-28T21:09:53.057Z,2.03
2022-07-28T21:14:54.786Z,6.10
2022-07-28T21:19:56.484Z,6.90
2022-07-28T21:24:59.078Z,10.83
2022-07-28T21:30:00.758Z,9.13
2022-07-28T21:35:02.433Z,5.80
2022-07-28T21:40:04.368Z,10.43
2022-07-28T21:45:06.426Z,14.47
2022-07-28T21:50:13.169Z,10.67
2022-07-28T21:55:14.915Z,10.70
2022-07-28T22:00:17.636Z,5.40
2022-07-28T22:05:19.381Z,4.20
2022-07-28T22:10:22.872Z,3.40
2022-07-28T22:15:24.632Z,2.47
2022-07-28T22:20:26.329Z,2.17
2022-07-28T22:25:28.053Z,2.57
2022-07-28T22:30:29.743Z,2.57
2022-07-28T22:35:31.438Z,9.10
2022-07-28T22:40:33.156Z,16.43
2022-07-28T22:45:49.791Z,14.10
2022-07-28T22:50:53.151Z,11.47
2022-07-28T22:55:54.853Z,14.30
2022-07-28T23:00:56.576Z,18.27
2022-07-28T23:05:59.327Z,11.50
2022-07-28T23:11:01.086Z,7.77
2022-07-28T23:16:02.835Z,6.23
2022-07-28T23:21:04.601Z,3.67
2022-07-28T23:26:06.478Z,3.07
2022-07-28T23:31:08.219Z,2.70
2022-07-28T23:36:26.898Z,2.07
2022-07-28T23:41:29.714Z,2.90
2022-07-28T23:46:31.516Z,3.47
2022-07-28T23:51:47.418Z,4.10
2022-07-28T23:56:56.410Z,4.77
